sensor_id;sensor_type;location;lat;lon;timestamp;P1;durP1;ratioP1;P2;durP2;ratioP2
47161;SDS011;32921;53.256;8.198;2023-12-20T00:01:32;402.17;;;374.23;;
47161;SDS011;32921;53.256;8.198;2023-12-20T00:03:57;385.65;;;359.73;;
47161;SDS011;32921;53.256;8.198;2023-12-20T00:06:23;395.73;;;368.58;;
47161;SDS011;32921;53.256;8.198;2023-12-20T00:08:49;403.75;;;376.85;;
47161;SDS011;32921;53.256;8.198;2023-12-20T00:11:14;379.08;;;353.40;;
47161;SDS011;32921;53.256;8.198;2023-12-20T00:13:40;386.80;;;361.13;;
47161;SDS011;32921;53.256;8.198;2023-12-20T00:16:05;376.15;;;351.45;;
47161;SDS011;32921;53.256;8.198;2023-12-20T00:18:31;391.65;;;364.00;;
47161;SDS011;32921;53.256;8.198;2023-12-20T00:20:56;400.70;;;374.00;;
47161;SDS011;32921;53.256;8.198;2023-12-20T00:23:23;441.20;;;411.13;;
47161;SDS011;32921;53.256;8.198;2023-12-20T00:25:49;430.80;;;401.10;;
47161;SDS011;32921;53.256;8.198;2023-12-20T00:28:14;407.40;;;380.02;;
47161;SDS011;32921;53.256;8.198;2023-12-20T00:30:40;422.90;;;394.58;;
47161;SDS011;32921;53.256;8.198;2023-12-20T00:33:06;416.77;;;388.50;;
47161;SDS011;32921;53.256;8.198;2023-12-20T00:35:31;412.75;;;385.38;;
47161;SDS011;32921;53.256;8.198;2023-12-20T00:37:57;399.00;;;372.52;;
47161;SDS011;32921;53.256;8.198;2023-12-20T00:40:24;406.63;;;379.70;;
47161;SDS011;32921;53.256;8.198;2023-12-20T00:42:49;402.63;;;375.83;;
47161;SDS011;32921;53.256;8.198;2023-12-20T00:45:15;415.95;;;388.15;;
47161;SDS011;32921;53.256;8.198;2023-12-20T00:47:40;393.42;;;368.10;;
47161;SDS011;32921;53.256;8.198;2023-12-20T00:50:06;446.45;;;416.55;;
47161;SDS011;32921;53.256;8.198;2023-12-20T00:52:32;418.95;;;389.60;;
47161;SDS011;32921;53.256;8.198;2023-12-20T00:54:58;438.35;;;409.35;;
47161;SDS011;32921;53.256;8.198;2023-12-20T00:57:23;424.13;;;396.38;;
47161;SDS011;32921;53.256;8.198;2023-12-20T00:59:49;430.33;;;401.70;;
47161;SDS011;32921;53.256;8.198;2023-12-20T01:02:14;436.20;;;407.52;;
47161;SDS011;32921;53.256;8.198;2023-12-20T01:04:40;427.27;;;398.88;;
47161;SDS011;32921;53.256;8.198;2023-12-20T01:07:05;442.10;;;413.00;;
47161;SDS011;32921;53.256;8.198;2023-12-20T01:09:31;431.80;;;403.30;;
47161;SDS011;32921;53.256;8.198;2023-12-20T01:11:57;422.50;;;394.92;;
47161;SDS011;32921;53.256;8.198;2023-12-20T01:14:22;427.70;;;400.30;;
47161;SDS011;32921;53.256;8.198;2023-12-20T01:16:48;432.98;;;404.58;;
47161;SDS011;32921;53.256;8.198;2023-12-20T01:19:13;411.75;;;384.90;;
47161;SDS011;32921;53.256;8.198;2023-12-20T01:21:39;427.55;;;399.95;;
47161;SDS011;32921;53.256;8.198;2023-12-20T01:24:05;426.95;;;399.38;;
47161;SDS011;32921;53.256;8.198;2023-12-20T01:26:31;440.25;;;411.65;;
47161;SDS011;32921;53.256;8.198;2023-12-20T01:28:56;419.20;;;392.05;;
47161;SDS011;32921;53.256;8.198;2023-12-20T01:31:22;439.20;;;410.65;;
47161;SDS011;32921;53.256;8.198;2023-12-20T01:33:48;429.95;;;399.60;;
47161;SDS011;32921;53.256;8.198;2023-12-20T01:36:13;430.33;;;402.92;;
47161;SDS011;32921;53.256;8.198;2023-12-20T01:38:39;427.95;;;400.55;;
47161;SDS011;32921;53.256;8.198;2023-12-20T01:41:05;423.85;;;396.92;;
47161;SDS011;32921;53.256;8.198;2023-12-20T01:43:30;444.95;;;416.55;;
47161;SDS011;32921;53.256;8.198;2023-12-20T01:45:57;449.33;;;420.50;;
47161;SDS011;32921;53.256;8.198;2023-12-20T01:48:23;427.85;;;400.65;;
47161;SDS011;32921;53.256;8.198;2023-12-20T01:50:49;460.95;;;430.60;;
47161;SDS011;32921;53.256;8.198;2023-12-20T01:53:16;441.58;;;413.08;;
47161;SDS011;32921;53.256;8.198;2023-12-20T01:55:44;455.08;;;425.98;;
47161;SDS011;32921;53.256;8.198;2023-12-20T01:58:10;448.45;;;419.48;;
47161;SDS011;32921;53.256;8.198;2023-12-20T02:00:36;452.15;;;423.33;;
47161;SDS011;32921;53.256;8.198;2023-12-20T02:03:02;449.00;;;420.05;;
47161;SDS011;32921;53.256;8.198;2023-12-20T02:05:32;461.83;;;430.40;;
47161;SDS011;32921;53.256;8.198;2023-12-20T02:07:59;479.17;;;447.80;;
47161;SDS011;32921;53.256;8.198;2023-12-20T02:10:24;477.95;;;446.15;;
47161;SDS011;32921;53.256;8.198;2023-12-20T02:12:50;466.85;;;436.20;;
47161;SDS011;32921;53.256;8.198;2023-12-20T02:15:16;434.73;;;406.55;;
47161;SDS011;32921;53.256;8.198;2023-12-20T02:17:42;462.75;;;432.23;;
47161;SDS011;32921;53.256;8.198;2023-12-20T02:20:08;489.10;;;456.70;;
47161;SDS011;32921;53.256;8.198;2023-12-20T02:22:34;462.30;;;431.88;;
47161;SDS011;32921;53.256;8.198;2023-12-20T02:25:00;451.52;;;422.25;;
47161;SDS011;32921;53.256;8.198;2023-12-20T02:27:26;499.48;;;466.77;;
47161;SDS011;32921;53.256;8.198;2023-12-20T02:29:52;475.95;;;443.85;;
47161;SDS011;32921;53.256;8.198;2023-12-20T02:32:18;464.08;;;433.35;;
47161;SDS011;32921;53.256;8.198;2023-12-20T02:34:45;478.08;;;446.58;;
47161;SDS011;32921;53.256;8.198;2023-12-20T02:37:14;500.30;;;466.85;;
47161;SDS011;32921;53.256;8.198;2023-12-20T02:39:40;476.17;;;444.90;;
47161;SDS011;32921;53.256;8.198;2023-12-20T02:42:06;480.92;;;447.63;;
47161;SDS011;32921;53.256;8.198;2023-12-20T02:44:31;462.42;;;431.83;;
47161;SDS011;32921;53.256;8.198;2023-12-20T02:46:57;482.20;;;449.83;;
47161;SDS011;32921;53.256;8.198;2023-12-20T02:49:23;463.60;;;432.33;;
47161;SDS011;32921;53.256;8.198;2023-12-20T02:51:48;451.25;;;420.70;;
47161;SDS011;32921;53.256;8.198;2023-12-20T02:54:14;426.50;;;398.00;;
47161;SDS011;32921;53.256;8.198;2023-12-20T02:56:39;415.38;;;387.60;;
47161;SDS011;32921;53.256;8.198;2023-12-20T02:59:05;435.58;;;406.67;;
47161;SDS011;32921;53.256;8.198;2023-12-20T03:01:33;419.08;;;390.73;;
47161;SDS011;32921;53.256;8.198;2023-12-20T03:03:59;453.75;;;422.08;;
47161;SDS011;32921;53.256;8.198;2023-12-20T03:06:25;417.48;;;389.02;;
47161;SDS011;32921;53.256;8.198;2023-12-20T03:08:50;430.90;;;400.90;;
47161;SDS011;32921;53.256;8.198;2023-12-20T03:11:16;430.98;;;401.55;;
47161;SDS011;32921;53.256;8.198;2023-12-20T03:13:41;443.77;;;412.33;;
47161;SDS011;32921;53.256;8.198;2023-12-20T03:16:10;431.77;;;401.63;;
47161;SDS011;32921;53.256;8.198;2023-12-20T03:18:36;467.73;;;434.23;;
47161;SDS011;32921;53.256;8.198;2023-12-20T03:21:02;421.13;;;392.73;;
47161;SDS011;32921;53.256;8.198;2023-12-20T03:23:29;434.20;;;404.35;;
47161;SDS011;32921;53.256;8.198;2023-12-20T03:25:55;419.42;;;390.60;;
47161;SDS011;32921;53.256;8.198;2023-12-20T03:28:21;436.63;;;405.95;;
47161;SDS011;32921;53.256;8.198;2023-12-20T03:30:48;439.95;;;408.48;;
47161;SDS011;32921;53.256;8.198;2023-12-20T03:33:14;432.52;;;402.50;;
47161;SDS011;32921;53.256;8.198;2023-12-20T03:35:39;433.67;;;403.42;;
47161;SDS011;32921;53.256;8.198;2023-12-20T03:38:05;419.17;;;390.33;;
47161;SDS011;32921;53.256;8.198;2023-12-20T03:40:30;431.17;;;401.80;;
47161;SDS011;32921;53.256;8.198;2023-12-20T03:42:56;445.23;;;414.65;;
47161;SDS011;32921;53.256;8.198;2023-12-20T03:45:21;429.77;;;399.15;;
47161;SDS011;32921;53.256;8.198;2023-12-20T03:47:47;401.65;;;373.83;;
47161;SDS011;32921;53.256;8.198;2023-12-20T03:50:13;437.63;;;407.42;;
47161;SDS011;32921;53.256;8.198;2023-12-20T03:52:39;435.33;;;405.27;;
47161;SDS011;32921;53.256;8.198;2023-12-20T03:55:04;422.02;;;393.40;;
47161;SDS011;32921;53.256;8.198;2023-12-20T03:57:30;415.20;;;386.13;;
47161;SDS011;32921;53.256;8.198;2023-12-20T03:59:56;442.48;;;411.25;;
47161;SDS011;32921;53.256;8.198;2023-12-20T04:02:21;411.65;;;383.23;;
47161;SDS011;32921;53.256;8.198;2023-12-20T04:04:47;428.38;;;399.15;;
47161;SDS011;32921;53.256;8.198;2023-12-20T04:07:13;427.35;;;398.02;;
47161;SDS011;32921;53.256;8.198;2023-12-20T04:09:38;461.55;;;428.48;;
47161;SDS011;32921;53.256;8.198;2023-12-20T04:12:06;462.90;;;429.77;;
47161;SDS011;32921;53.256;8.198;2023-12-20T04:14:32;445.13;;;413.85;;
47161;SDS011;32921;53.256;8.198;2023-12-20T04:16:57;429.60;;;399.67;;
47161;SDS011;32921;53.256;8.198;2023-12-20T04:19:23;457.27;;;425.15;;
47161;SDS011;32921;53.256;8.198;2023-12-20T04:21:49;479.52;;;444.70;;
47161;SDS011;32921;53.256;8.198;2023-12-20T04:24:14;453.63;;;421.83;;
47161;SDS011;32921;53.256;8.198;2023-12-20T04:26:40;459.30;;;427.08;;
47161;SDS011;32921;53.256;8.198;2023-12-20T04:29:06;520.05;;;481.15;;
47161;SDS011;32921;53.256;8.198;2023-12-20T04:31:31;515.47;;;478.05;;
47161;SDS011;32921;53.256;8.198;2023-12-20T04:33:57;503.35;;;465.90;;
47161;SDS011;32921;53.256;8.198;2023-12-20T04:36:22;489.52;;;454.25;;
47161;SDS011;32921;53.256;8.198;2023-12-20T04:38:50;508.92;;;471.20;;
47161;SDS011;32921;53.256;8.198;2023-12-20T04:41:15;496.48;;;459.42;;
47161;SDS011;32921;53.256;8.198;2023-12-20T04:43:43;554.22;;;512.28;;
47161;SDS011;32921;53.256;8.198;2023-12-20T04:46:09;543.42;;;502.42;;
47161;SDS011;32921;53.256;8.198;2023-12-20T04:48:35;538.90;;;497.88;;
47161;SDS011;32921;53.256;8.198;2023-12-20T04:51:00;557.20;;;515.60;;
47161;SDS011;32921;53.256;8.198;2023-12-20T04:53:26;540.13;;;499.48;;
47161;SDS011;32921;53.256;8.198;2023-12-20T04:55:52;477.55;;;443.42;;
47161;SDS011;32921;53.256;8.198;2023-12-20T04:58:18;521.10;;;482.05;;
47161;SDS011;32921;53.256;8.198;2023-12-20T05:00:44;530.10;;;490.33;;
47161;SDS011;32921;53.256;8.198;2023-12-20T05:03:09;557.67;;;514.72;;
47161;SDS011;32921;53.256;8.198;2023-12-20T05:05:35;606.40;;;558.53;;
47161;SDS011;32921;53.256;8.198;2023-12-20T05:08:01;571.35;;;526.40;;
47161;SDS011;32921;53.256;8.198;2023-12-20T05:10:26;536.63;;;496.00;;
47161;SDS011;32921;53.256;8.198;2023-12-20T05:12:52;546.20;;;504.13;;
47161;SDS011;32921;53.256;8.198;2023-12-20T05:15:18;557.45;;;514.03;;
47161;SDS011;32921;53.256;8.198;2023-12-20T05:17:44;538.30;;;497.35;;
47161;SDS011;32921;53.256;8.198;2023-12-20T05:20:09;525.60;;;485.83;;
47161;SDS011;32921;53.256;8.198;2023-12-20T05:22:35;491.30;;;455.75;;
47161;SDS011;32921;53.256;8.198;2023-12-20T05:25:01;528.25;;;488.35;;
47161;SDS011;32921;53.256;8.198;2023-12-20T05:27:27;549.13;;;507.38;;
47161;SDS011;32921;53.256;8.198;2023-12-20T05:29:52;548.20;;;505.98;;
47161;SDS011;32921;53.256;8.198;2023-12-20T05:32:18;532.70;;;492.23;;
47161;SDS011;32921;53.256;8.198;2023-12-20T05:34:43;562.90;;;519.55;;
47161;SDS011;32921;53.256;8.198;2023-12-20T05:37:09;644.90;;;593.70;;
47161;SDS011;32921;53.256;8.198;2023-12-20T05:39:35;589.40;;;544.70;;
47161;SDS011;32921;53.256;8.198;2023-12-20T05:42:00;657.55;;;605.10;;
47161;SDS011;32921;53.256;8.198;2023-12-20T05:44:26;672.05;;;618.50;;
47161;SDS011;32921;53.256;8.198;2023-12-20T05:46:51;628.75;;;579.75;;
47161;SDS011;32921;53.256;8.198;2023-12-20T05:49:17;647.92;;;596.63;;
47161;SDS011;32921;53.256;8.198;2023-12-20T05:51:42;614.05;;;566.13;;
47161;SDS011;32921;53.256;8.198;2023-12-20T05:54:09;645.25;;;594.75;;
47161;SDS011;32921;53.256;8.198;2023-12-20T05:56:34;661.67;;;608.53;;
47161;SDS011;32921;53.256;8.198;2023-12-20T05:59:00;704.13;;;647.05;;
47161;SDS011;32921;53.256;8.198;2023-12-20T06:01:26;671.00;;;617.40;;
47161;SDS011;32921;53.256;8.198;2023-12-20T06:03:51;675.17;;;621.22;;
47161;SDS011;32921;53.256;8.198;2023-12-20T06:06:17;603.63;;;556.72;;
47161;SDS011;32921;53.256;8.198;2023-12-20T06:08:43;630.42;;;581.15;;
47161;SDS011;32921;53.256;8.198;2023-12-20T06:11:09;681.17;;;625.67;;
47161;SDS011;32921;53.256;8.198;2023-12-20T06:13:34;681.30;;;625.65;;
47161;SDS011;32921;53.256;8.198;2023-12-20T06:16:00;613.47;;;565.35;;
47161;SDS011;32921;53.256;8.198;2023-12-20T06:18:26;652.40;;;600.45;;
47161;SDS011;32921;53.256;8.198;2023-12-20T06:20:52;683.53;;;628.42;;
47161;SDS011;32921;53.256;8.198;2023-12-20T06:23:17;707.35;;;649.92;;
47161;SDS011;32921;53.256;8.198;2023-12-20T06:25:43;672.80;;;618.88;;
47161;SDS011;32921;53.256;8.198;2023-12-20T06:28:09;621.78;;;572.88;;
47161;SDS011;32921;53.256;8.198;2023-12-20T06:30:35;614.70;;;565.53;;
47161;SDS011;32921;53.256;8.198;2023-12-20T06:33:01;602.92;;;555.53;;
47161;SDS011;32921;53.256;8.198;2023-12-20T06:35:26;629.50;;;579.42;;
47161;SDS011;32921;53.256;8.198;2023-12-20T06:37:52;652.80;;;601.60;;
47161;SDS011;32921;53.256;8.198;2023-12-20T06:40:18;646.65;;;596.25;;
47161;SDS011;32921;53.256;8.198;2023-12-20T06:42:43;669.53;;;617.03;;
47161;SDS011;32921;53.256;8.198;2023-12-20T06:45:09;668.22;;;614.95;;
47161;SDS011;32921;53.256;8.198;2023-12-20T06:47:35;599.00;;;552.47;;
47161;SDS011;32921;53.256;8.198;2023-12-20T06:50:01;589.50;;;543.17;;
47161;SDS011;32921;53.256;8.198;2023-12-20T06:52:26;588.92;;;541.00;;
47161;SDS011;32921;53.256;8.198;2023-12-20T06:54:52;578.70;;;533.30;;
47161;SDS011;32921;53.256;8.198;2023-12-20T06:57:17;614.28;;;566.30;;
47161;SDS011;32921;53.256;8.198;2023-12-20T06:59:44;527.30;;;487.65;;
47161;SDS011;32921;53.256;8.198;2023-12-20T07:02:10;587.97;;;542.55;;
47161;SDS011;32921;53.256;8.198;2023-12-20T07:04:39;595.85;;;550.13;;
47161;SDS011;32921;53.256;8.198;2023-12-20T07:07:05;571.45;;;526.95;;
47161;SDS011;32921;53.256;8.198;2023-12-20T07:09:32;590.72;;;545.13;;
47161;SDS011;32921;53.256;8.198;2023-12-20T07:11:58;541.55;;;500.40;;
47161;SDS011;32921;53.256;8.198;2023-12-20T07:14:24;502.48;;;466.20;;
47161;SDS011;32921;53.256;8.198;2023-12-20T07:16:50;492.00;;;456.20;;
47161;SDS011;32921;53.256;8.198;2023-12-20T07:19:15;490.38;;;454.92;;
47161;SDS011;32921;53.256;8.198;2023-12-20T07:21:41;509.50;;;471.92;;
47161;SDS011;32921;53.256;8.198;2023-12-20T07:24:06;523.72;;;484.83;;
47161;SDS011;32921;53.256;8.198;2023-12-20T07:26:32;530.35;;;490.27;;
47161;SDS011;32921;53.256;8.198;2023-12-20T07:28:59;470.80;;;436.63;;
47161;SDS011;32921;53.256;8.198;2023-12-20T07:31:24;493.95;;;457.65;;
47161;SDS011;32921;53.256;8.198;2023-12-20T07:33:50;475.95;;;442.25;;
47161;SDS011;32921;53.256;8.198;2023-12-20T07:36:16;474.63;;;439.60;;
47161;SDS011;32921;53.256;8.198;2023-12-20T07:38:41;517.70;;;479.40;;
47161;SDS011;32921;53.256;8.198;2023-12-20T07:41:09;491.52;;;456.08;;
47161;SDS011;32921;53.256;8.198;2023-12-20T07:43:35;457.80;;;425.30;;
47161;SDS011;32921;53.256;8.198;2023-12-20T07:46:05;489.58;;;453.52;;
47161;SDS011;32921;53.256;8.198;2023-12-20T07:48:31;481.73;;;447.08;;
47161;SDS011;32921;53.256;8.198;2023-12-20T07:50:57;484.35;;;449.65;;
47161;SDS011;32921;53.256;8.198;2023-12-20T07:53:23;498.35;;;461.98;;
47161;SDS011;32921;53.256;8.198;2023-12-20T07:55:49;490.92;;;455.15;;
47161;SDS011;32921;53.256;8.198;2023-12-20T07:58:14;477.67;;;443.40;;
47161;SDS011;32921;53.256;8.198;2023-12-20T08:00:40;483.83;;;449.17;;
47161;SDS011;32921;53.256;8.198;2023-12-20T08:03:05;475.95;;;442.45;;
47161;SDS011;32921;53.256;8.198;2023-12-20T08:05:32;468.02;;;434.80;;
47161;SDS011;32921;53.256;8.198;2023-12-20T08:07:57;478.25;;;443.27;;
47161;SDS011;32921;53.256;8.198;2023-12-20T08:10:23;503.83;;;466.88;;
47161;SDS011;32921;53.256;8.198;2023-12-20T08:12:49;490.35;;;454.80;;
47161;SDS011;32921;53.256;8.198;2023-12-20T08:15:14;475.42;;;441.92;;
47161;SDS011;32921;53.256;8.198;2023-12-20T08:17:40;508.02;;;470.20;;
47161;SDS011;32921;53.256;8.198;2023-12-20T08:20:06;470.33;;;436.58;;
47161;SDS011;32921;53.256;8.198;2023-12-20T08:22:32;512.35;;;474.38;;
47161;SDS011;32921;53.256;8.198;2023-12-20T08:24:57;495.75;;;460.42;;
47161;SDS011;32921;53.256;8.198;2023-12-20T08:27:23;493.05;;;457.10;;
47161;SDS011;32921;53.256;8.198;2023-12-20T08:29:48;515.78;;;476.33;;
47161;SDS011;32921;53.256;8.198;2023-12-20T08:32:15;507.70;;;469.70;;
47161;SDS011;32921;53.256;8.198;2023-12-20T08:34:41;503.33;;;467.10;;
47161;SDS011;32921;53.256;8.198;2023-12-20T08:37:06;508.75;;;471.77;;
47161;SDS011;32921;53.256;8.198;2023-12-20T08:39:32;490.90;;;455.23;;
47161;SDS011;32921;53.256;8.198;2023-12-20T08:41:58;500.05;;;463.75;;
47161;SDS011;32921;53.256;8.198;2023-12-20T08:44:24;527.17;;;487.60;;
47161;SDS011;32921;53.256;8.198;2023-12-20T08:46:49;528.67;;;489.30;;
47161;SDS011;32921;53.256;8.198;2023-12-20T08:49:15;514.92;;;476.52;;
47161;SDS011;32921;53.256;8.198;2023-12-20T08:51:41;504.70;;;467.35;;
47161;SDS011;32921;53.256;8.198;2023-12-20T08:54:07;523.10;;;484.75;;
47161;SDS011;32921;53.256;8.198;2023-12-20T08:56:33;533.80;;;493.88;;
47161;SDS011;32921;53.256;8.198;2023-12-20T08:58:59;528.17;;;488.23;;
47161;SDS011;32921;53.256;8.198;2023-12-20T09:01:24;538.80;;;496.88;;
47161;SDS011;32921;53.256;8.198;2023-12-20T09:03:50;516.75;;;477.90;;
47161;SDS011;32921;53.256;8.198;2023-12-20T09:06:15;498.50;;;461.73;;
47161;SDS011;32921;53.256;8.198;2023-12-20T09:08:41;471.98;;;438.10;;
47161;SDS011;32921;53.256;8.198;2023-12-20T09:11:07;504.70;;;467.17;;
47161;SDS011;32921;53.256;8.198;2023-12-20T09:13:32;481.90;;;446.05;;
47161;SDS011;32921;53.256;8.198;2023-12-20T09:15:58;539.10;;;498.17;;
47161;SDS011;32921;53.256;8.198;2023-12-20T09:18:24;548.38;;;505.10;;
47161;SDS011;32921;53.256;8.198;2023-12-20T09:20:50;683.88;;;627.15;;
47161;SDS011;32921;53.256;8.198;2023-12-20T09:23:15;616.20;;;566.53;;
47161;SDS011;32921;53.256;8.198;2023-12-20T09:25:42;630.90;;;580.10;;
47161;SDS011;32921;53.256;8.198;2023-12-20T09:28:08;634.60;;;583.50;;
47161;SDS011;32921;53.256;8.198;2023-12-20T09:30:34;622.10;;;571.92;;
47161;SDS011;32921;53.256;8.198;2023-12-20T09:33:02;672.08;;;618.47;;
47161;SDS011;32921;53.256;8.198;2023-12-20T09:35:28;636.88;;;584.80;;
47161;SDS011;32921;53.256;8.198;2023-12-20T09:37:54;649.03;;;595.97;;
47161;SDS011;32921;53.256;8.198;2023-12-20T09:40:19;660.72;;;607.03;;
47161;SDS011;32921;53.256;8.198;2023-12-20T09:42:50;604.10;;;556.40;;
47161;SDS011;32921;53.256;8.198;2023-12-20T09:45:23;653.60;;;601.55;;
47161;SDS011;32921;53.256;8.198;2023-12-20T09:47:53;603.45;;;555.72;;
47161;SDS011;32921;53.256;8.198;2023-12-20T09:50:22;643.20;;;591.50;;
47161;SDS011;32921;53.256;8.198;2023-12-20T09:52:52;633.80;;;583.35;;
47161;SDS011;32921;53.256;8.198;2023-12-20T09:55:19;630.22;;;579.78;;
47161;SDS011;32921;53.256;8.198;2023-12-20T09:57:48;574.58;;;529.45;;
47161;SDS011;32921;53.256;8.198;2023-12-20T10:00:14;583.92;;;537.40;;
47161;SDS011;32921;53.256;8.198;2023-12-20T10:02:45;538.90;;;497.08;;
47161;SDS011;32921;53.256;8.198;2023-12-20T10:05:15;551.85;;;509.55;;
47161;SDS011;32921;53.256;8.198;2023-12-20T10:07:44;565.67;;;521.60;;
47161;SDS011;32921;53.256;8.198;2023-12-20T10:10:10;574.38;;;528.28;;
47161;SDS011;32921;53.256;8.198;2023-12-20T10:12:38;558.80;;;515.63;;
47161;SDS011;32921;53.256;8.198;2023-12-20T10:15:03;571.90;;;526.88;;
47161;SDS011;32921;53.256;8.198;2023-12-20T10:17:30;553.20;;;511.05;;
47161;SDS011;32921;53.256;8.198;2023-12-20T10:19:57;646.20;;;595.03;;
47161;SDS011;32921;53.256;8.198;2023-12-20T10:22:23;685.80;;;631.38;;
47161;SDS011;32921;53.256;8.198;2023-12-20T10:24:49;691.13;;;635.97;;
47161;SDS011;32921;53.256;8.198;2023-12-20T10:27:14;697.83;;;642.33;;
47161;SDS011;32921;53.256;8.198;2023-12-20T10:29:44;692.35;;;636.17;;
47161;SDS011;32921;53.256;8.198;2023-12-20T10:32:21;772.15;;;707.17;;
47161;SDS011;32921;53.256;8.198;2023-12-20T10:34:51;776.77;;;712.33;;
47161;SDS011;32921;53.256;8.198;2023-12-20T10:37:18;817.70;;;747.47;;
47161;SDS011;32921;53.256;8.198;2023-12-20T10:39:43;783.35;;;717.75;;
47161;SDS011;32921;53.256;8.198;2023-12-20T10:42:14;836.83;;;765.08;;
47161;SDS011;32921;53.256;8.198;2023-12-20T10:44:40;824.40;;;753.13;;
47161;SDS011;32921;53.256;8.198;2023-12-20T10:47:06;875.80;;;798.35;;
47161;SDS011;32921;53.256;8.198;2023-12-20T10:49:34;841.22;;;768.53;;
47161;SDS011;32921;53.256;8.198;2023-12-20T10:52:02;894.00;;;815.45;;
47161;SDS011;32921;53.256;8.198;2023-12-20T10:54:30;871.88;;;795.90;;
47161;SDS011;32921;53.256;8.198;2023-12-20T10:56:56;882.25;;;804.85;;
47161;SDS011;32921;53.256;8.198;2023-12-20T10:59:23;860.65;;;787.38;;
47161;SDS011;32921;53.256;8.198;2023-12-20T11:01:50;867.50;;;793.00;;
47161;SDS011;32921;53.256;8.198;2023-12-20T11:04:22;843.97;;;772.63;;
47161;SDS011;32921;53.256;8.198;2023-12-20T11:06:52;836.17;;;765.92;;
47161;SDS011;32921;53.256;8.198;2023-12-20T11:09:29;774.67;;;710.60;;
47161;SDS011;32921;53.256;8.198;2023-12-20T11:12:20;767.00;;;704.47;;
47161;SDS011;32921;53.256;8.198;2023-12-20T11:15:00;683.38;;;628.10;;
47161;SDS011;32921;53.256;8.198;2023-12-20T11:17:29;730.47;;;671.33;;
47161;SDS011;32921;53.256;8.198;2023-12-20T11:22:22;758.97;;;697.10;;
47161;SDS011;32921;53.256;8.198;2023-12-20T11:24:50;681.40;;;625.67;;
47161;SDS011;32921;53.256;8.198;2023-12-20T11:27:16;736.80;;;676.47;;
47161;SDS011;32921;53.256;8.198;2023-12-20T11:29:51;675.50;;;620.97;;
47161;SDS011;32921;53.256;8.198;2023-12-20T11:37:37;679.70;;;626.10;;
47161;SDS011;32921;53.256;8.198;2023-12-20T11:40:07;712.30;;;656.50;;
47161;SDS011;32921;53.256;8.198;2023-12-20T11:42:39;696.95;;;640.80;;
47161;SDS011;32921;53.256;8.198;2023-12-20T11:45:08;671.00;;;617.08;;
47161;SDS011;32921;53.256;8.198;2023-12-20T11:47:46;579.13;;;534.15;;
47161;SDS011;32921;53.256;8.198;2023-12-20T11:52:44;408.63;;;380.17;;
47161;SDS011;32921;53.256;8.198;2023-12-20T11:55:09;436.02;;;405.55;;
47161;SDS011;32921;53.256;8.198;2023-12-20T11:57:35;391.38;;;365.25;;
47161;SDS011;32921;53.256;8.198;2023-12-20T12:00:02;351.85;;;329.50;;
47161;SDS011;32921;53.256;8.198;2023-12-20T12:02:29;315.90;;;296.48;;
47161;SDS011;32921;53.256;8.198;2023-12-20T12:04:55;301.45;;;283.08;;
47161;SDS011;32921;53.256;8.198;2023-12-20T12:07:21;298.67;;;280.38;;
47161;SDS011;32921;53.256;8.198;2023-12-20T12:09:47;307.35;;;288.70;;
47161;SDS011;32921;53.256;8.198;2023-12-20T12:12:13;322.77;;;302.98;;
47161;SDS011;32921;53.256;8.198;2023-12-20T12:14:40;320.35;;;301.02;;
47161;SDS011;32921;53.256;8.198;2023-12-20T12:17:12;309.23;;;290.15;;
47161;SDS011;32921;53.256;8.198;2023-12-20T12:19:42;320.00;;;300.17;;
47161;SDS011;32921;53.256;8.198;2023-12-20T12:22:09;327.20;;;305.05;;
47161;SDS011;32921;53.256;8.198;2023-12-20T12:24:45;319.60;;;300.02;;
47161;SDS011;32921;53.256;8.198;2023-12-20T12:27:11;325.75;;;305.88;;
47161;SDS011;32921;53.256;8.198;2023-12-20T12:29:38;329.50;;;309.10;;
47161;SDS011;32921;53.256;8.198;2023-12-20T12:32:07;339.45;;;318.70;;
47161;SDS011;32921;53.256;8.198;2023-12-20T12:34:34;356.52;;;334.20;;
47161;SDS011;32921;53.256;8.198;2023-12-20T12:37:00;367.38;;;344.52;;
47161;SDS011;32921;53.256;8.198;2023-12-20T12:39:26;380.83;;;356.50;;
47161;SDS011;32921;53.256;8.198;2023-12-20T12:41:52;371.00;;;347.50;;
47161;SDS011;32921;53.256;8.198;2023-12-20T12:44:18;387.80;;;363.10;;
47161;SDS011;32921;53.256;8.198;2023-12-20T12:46:47;373.77;;;349.95;;
47161;SDS011;32921;53.256;8.198;2023-12-20T12:49:16;387.25;;;362.52;;
47161;SDS011;32921;53.256;8.198;2023-12-20T12:51:42;393.80;;;368.48;;
47161;SDS011;32921;53.256;8.198;2023-12-20T12:54:08;396.58;;;371.10;;
47161;SDS011;32921;53.256;8.198;2023-12-20T12:56:34;416.25;;;387.58;;
47161;SDS011;32921;53.256;8.198;2023-12-20T12:59:00;410.35;;;382.85;;
47161;SDS011;32921;53.256;8.198;2023-12-20T13:01:26;415.67;;;388.13;;
47161;SDS011;32921;53.256;8.198;2023-12-20T13:03:52;411.83;;;385.05;;
47161;SDS011;32921;53.256;8.198;2023-12-20T13:06:17;428.40;;;399.70;;
47161;SDS011;32921;53.256;8.198;2023-12-20T13:08:43;433.92;;;404.73;;
47161;SDS011;32921;53.256;8.198;2023-12-20T13:11:09;433.75;;;404.38;;
47161;SDS011;32921;53.256;8.198;2023-12-20T13:13:35;440.13;;;410.48;;
47161;SDS011;32921;53.256;8.198;2023-12-20T13:16:00;428.85;;;399.08;;
47161;SDS011;32921;53.256;8.198;2023-12-20T13:18:26;420.77;;;391.05;;
47161;SDS011;32921;53.256;8.198;2023-12-20T13:20:51;438.17;;;408.08;;
47161;SDS011;32921;53.256;8.198;2023-12-20T13:23:17;420.17;;;392.30;;
47161;SDS011;32921;53.256;8.198;2023-12-20T13:25:43;422.45;;;393.02;;
47161;SDS011;32921;53.256;8.198;2023-12-20T13:28:10;411.45;;;383.55;;
47161;SDS011;32921;53.256;8.198;2023-12-20T13:30:36;439.83;;;408.83;;
47161;SDS011;32921;53.256;8.198;2023-12-20T13:33:02;428.25;;;399.05;;
47161;SDS011;32921;53.256;8.198;2023-12-20T13:35:27;401.80;;;375.20;;
47161;SDS011;32921;53.256;8.198;2023-12-20T13:37:53;395.75;;;369.75;;
47161;SDS011;32921;53.256;8.198;2023-12-20T13:40:19;396.55;;;369.88;;
47161;SDS011;32921;53.256;8.198;2023-12-20T13:42:44;396.50;;;370.25;;
47161;SDS011;32921;53.256;8.198;2023-12-20T13:45:10;402.40;;;374.92;;
47161;SDS011;32921;53.256;8.198;2023-12-20T13:47:36;399.45;;;372.45;;
47161;SDS011;32921;53.256;8.198;2023-12-20T13:50:02;395.27;;;368.77;;
47161;SDS011;32921;53.256;8.198;2023-12-20T13:52:29;386.85;;;360.60;;
47161;SDS011;32921;53.256;8.198;2023-12-20T13:54:54;401.50;;;373.23;;
47161;SDS011;32921;53.256;8.198;2023-12-20T13:57:20;380.83;;;354.88;;
47161;SDS011;32921;53.256;8.198;2023-12-20T13:59:45;388.40;;;362.08;;
47161;SDS011;32921;53.256;8.198;2023-12-20T14:02:11;385.55;;;359.80;;